Latest Weather Observations for Garden Island

IDW60901

Issued at 9:11 am WST Wednesday 27 September 2023 (issued every 10 minutes, with the page automatically refreshed every 10 minutes)

About weather observations | Map of Perth area stations | Latest observations for Perth area | Other Formats
Station Details ID: 009256 Name: GARDEN ISLAND HSF Lat: -32.24 Lon: 115.68 Height: 6.0 m
Data from the previous 72 hours. | See also: Recent months at Garden Island
Date/Time
WST
Temp
°C
App
Temp
°C
Dew
Point
°C
Rel
Hum
%
Delta-T
°C
Wind Press
QNH
hPa
Press
MSL
hPa
Rain since
9am
mm
Dir  Spd
km/h
Gust
km/h
Spd
kts
Gust
kts
27/09:00am 23.6 20.6 13.8 54 5.7 NE 22 30 12 16 1021.4 1021.4 0.0
27/08:30am 22.5 20.0 13.6 57 5.2 NE 19 26 10 14 1021.7 1021.7 0.0
27/08:00am 20.7 17.2 12.1 58 4.8 NE 22 32 12 17 1021.6 1021.6 0.0
27/07:30am 19.5 17.1 11.3 59 4.5 NE 15 26 8 14 1021.6 1021.6 0.0
27/07:00am 18.6 15.2 10.7 60 4.2 ENE 19 26 10 14 1021.7 1021.7 0.0
27/06:30am 17.7 14.0 10.1 61 4.0 NE 20 26 11 14 1021.6 1021.6 0.0
27/06:00am 16.0 12.8 9.9 67 3.2 ENE 17 22 9 12 1021.4 1021.4 0.0
27/05:30am 14.3 12.5 9.3 72 2.6 SSE 9 15 5 8 1021.3 1021.3 0.0
27/05:00am 14.1 12.2 8.9 71 2.6 SSE 9 13 5 7 1021.4 1021.4 0.0
27/04:30am 14.3 11.5 8.5 68 2.9 SSE 13 15 7 8 1021.3 1021.3 0.0
27/04:00am 15.7 12.9 8.4 62 3.7 SSE 13 15 7 8 1021.5 1021.5 0.0
27/03:30am 16.0 13.4 9.4 65 3.4 SSE 13 17 7 9 1021.7 1021.7 0.0
27/03:00am 15.9 13.5 10.2 69 3.0 SSE 13 15 7 8 1022.0 1022.0 0.0
27/02:30am 15.8 13.1 10.3 70 2.9 SSE 15 17 8 9 1022.3 1022.3 0.0
27/02:00am 15.9 12.8 10.4 70 2.9 SSE 17 20 9 11 1022.5 1022.5 0.0
27/01:30am 16.0 13.2 11.2 73 2.6 SSE 17 19 9 10 1022.8 1022.8 0.0
27/01:00am 16.2 14.3 12.9 81 1.8 SSE 15 19 8 10 1023.0 1023.0 0.0
27/12:30am 16.3 14.3 12.8 80 1.9 SSE 15 17 8 9 1023.2 1023.2 0.0
27/12:00am 16.1 13.7 12.5 79 2.0 SSE 17 20 9 11 1023.4 1023.4 0.0
 
Date/Time
WST
Temp
°C
App
Temp
°C
Dew
Point
°C
Rel
Hum
%
Delta-T
°C
Wind Press
QNH
hPa
Press
MSL
hPa
Rain since
9am
mm
Dir  Spd
km/h
Gust
km/h
Spd
kts
Gust
kts
26/11:30pm 16.5 13.2 12.8 79 2.1 SSE 22 26 12 14 1023.5 1023.5 0.0
26/11:00pm 16.9 13.7 13.0 78 2.2 SSE 22 26 12 14 1024.0 1024.0 0.0
26/10:30pm 16.9 13.9 12.6 76 2.4 SSE 20 26 11 14 1024.6 1024.6 0.0
26/10:00pm 17.1 13.4 12.6 75 2.5 SSE 24 28 13 15 1024.9 1024.9 0.0
26/09:30pm 17.3 14.4 12.8 75 2.5 SSE 20 26 11 14 1024.9 1024.9 0.0
26/09:00pm 17.4 14.3 12.1 71 2.9 SSE 20 24 11 13 1024.8 1024.8 0.0
26/08:30pm 17.5 14.2 11.5 68 3.3 SSE 20 24 11 13 1024.8 1024.8 0.0
26/08:00pm 17.6 13.6 10.5 63 3.8 SSE 22 26 12 14 1024.6 1024.6 0.0
26/07:30pm 18.0 13.9 11.6 66 3.5 SSE 24 30 13 16 1024.4 1024.4 0.0
26/07:00pm 18.4 13.4 12.2 67 3.4 S 30 35 16 19 1024.1 1024.1 0.0
26/06:30pm 18.4 13.2 11.7 65 3.7 S 30 35 16 19 1024.1 1024.1 0.0
26/06:00pm 18.3 12.9 12.7 70 3.1 S 33 39 18 21 1023.9 1023.9 0.0
26/05:30pm 18.4 12.2 12.6 69 3.2 S 37 43 20 23 1023.7 1023.7 0.0
26/05:00pm 18.3 11.7 12.5 69 3.2 S 39 43 21 23 1023.6 1023.6 0.0
26/04:30pm 18.5 12.6 11.1 62 4.0 SSW 33 41 18 22 1023.7 1023.7 0.0
26/04:00pm 18.6 13.8 13.0 70 3.1 SSW 30 33 16 18 1023.9 1023.9 0.0
26/03:30pm 18.8 14.1 13.2 70 3.2 SSW 30 35 16 19 1024.0 1024.0 0.0
26/03:00pm 18.9 14.9 14.2 74 2.7 SSW 28 33 15 18 1024.1 1024.1 0.0
26/02:30pm 18.8 14.5 14.3 75 2.6 SSW 30 35 16 19 1024.3 1024.3 0.0
26/02:00pm 18.5 13.4 13.8 74 2.7 SSW 33 37 18 20 1024.5 1024.5 0.0
26/01:30pm 18.5 13.7 14.0 75 2.6 SSW 32 35 17 19 1024.9 1024.9 0.0
26/01:00pm 18.5 14.8 13.8 74 2.7 SSW 26 33 14 18 1025.3 1025.3 0.0
26/12:30pm 18.7 14.8 13.3 71 3.1 SSW 26 30 14 16 1025.7 1025.7 0.0
26/12:00pm 18.3 15.1 13.0 71 3.0 SSW 22 26 12 14 1025.9 1025.9 0.0
26/11:30am 18.0 15.1 12.9 72 2.9 SSW 20 24 11 13 1026.2 1026.2 0.0
26/11:00am 17.9 15.2 13.0 73 2.7 SSW 19 20 10 11 1026.4 1026.4 0.0
26/10:30am 17.7 15.4 13.0 74 2.6 SSW 17 20 9 11 1026.8 1026.8 0.0
26/10:00am 17.1 14.8 11.8 71 2.9 S 15 17 8 9 1026.9 1026.9 0.0
26/09:30am 17.3 16.2 12.0 71 2.9 ESE 9 15 5 8 1026.9 1026.9 0.0
26/09:00am 16.9 15.9 12.2 74 2.6 E 9 13 5 7 1027.1 1027.1 0.0
26/08:30am 16.0 14.9 11.8 76 2.3 E 9 15 5 8 1027.2 1027.2 0.0
26/08:00am 15.0 13.0 11.6 80 1.8 ESE 13 15 7 8 1027.1 1027.1 0.0
26/07:30am 14.2 12.6 11.7 85 1.3 ESE 11 15 6 8 1027.0 1027.0 0.0
26/07:00am 13.1 11.1 11.5 90 0.8 ESE 13 15 7 8 1026.6 1026.6 0.0
26/06:30am 11.9 10.0 10.5 91 0.7 ESE 11 15 6 8 1026.4 1026.4 0.0
26/06:00am 11.6 9.2 10.0 90 0.8 ESE 13 17 7 9 1026.3 1026.3 0.0
26/05:30am 11.6 9.5 9.7 88 1.0 ESE 11 15 6 8 1025.9 1025.9 0.0
26/05:00am 13.2 10.7 10.9 86 1.2 SE 15 17 8 9 1025.4 1025.4 0.0
26/04:30am 13.4 10.5 11.1 86 1.2 SE 17 20 9 11 1024.8 1024.8 0.0
26/04:00am 13.6 10.8 11.3 86 1.2 SE 17 20 9 11 1024.5 1024.5 0.0
26/03:30am 13.6 11.1 11.1 85 1.3 SE 15 19 8 10 1024.2 1024.2 0.0
26/03:00am 14.0 11.2 11.5 85 1.3 SE 17 20 9 11 1024.1 1024.1 0.0
26/02:30am 14.1 11.8 11.8 86 1.2 SSE 15 20 8 11 1024.1 1024.1 0.0
26/02:00am 14.8 11.8 12.1 84 1.5 SSE 19 20 10 11 1024.1 1024.1 0.0
26/01:30am 14.6 12.0 11.9 84 1.5 SSE 17 20 9 11 1024.0 1024.0 0.0
26/01:00am 14.6 12.0 11.9 84 1.4 SE 17 20 9 11 1023.7 1023.7 0.0
26/12:30am 14.5 12.3 12.0 85 1.4 SE 15 19 8 10 1023.8 1023.8 0.0
26/12:00am 15.8 13.4 12.7 82 1.7 SE 17 19 9 10 1023.8 1023.8 0.0
 
Date/Time
WST
Temp
°C
App
Temp
°C
Dew
Point
°C
Rel
Hum
%
Delta-T
°C
Wind Press
QNH
hPa
Press
MSL
hPa
Rain since
9am
mm
Dir  Spd
km/h
Gust
km/h
Spd
kts
Gust
kts
25/11:30pm 16.9 13.0 13.2 79 2.1 S 26 32 14 17 1023.8 1023.8 0.0
25/11:00pm 17.1 12.3 13.0 77 2.3 S 30 35 16 19 1023.9 1023.9 0.0
25/10:30pm 17.1 12.5 13.4 79 2.1 S 30 35 16 19 1023.9 1023.9 0.0
25/10:00pm 17.3 12.0 13.0 76 2.4 S 33 39 18 21 1023.9 1023.9 0.0
25/09:30pm 17.4 11.7 12.9 75 2.5 S 35 43 19 23 1023.9 1023.9 0.0
25/09:00pm 17.5 11.5 13.2 76 2.4 S 37 43 20 23 1024.0 1024.0 0.0
25/08:30pm 17.4 11.3 13.1 76 2.4 S 37 41 20 22 1023.9 1023.9 0.0
25/08:00pm 17.4 12.0 12.9 75 2.5 S 33 39 18 21 1023.3 1023.3 0.0
25/07:30pm 17.5 11.7 12.6 73 2.7 SSW 35 41 19 22 1022.9 1022.9 0.0
25/07:00pm 17.5 11.0 12.8 74 2.6 SSW 39 44 21 24 1022.5 1022.5 0.0
25/06:30pm 17.5 11.3 12.8 74 2.6 SSW 37 44 20 24 1022.2 1022.2 0.0
25/06:00pm 17.5 11.0 12.8 74 2.6 SSW 39 46 21 25 1021.9 1021.9 0.0
25/05:30pm 17.5 10.9 12.6 73 2.7 SSW 39 48 21 26 1021.6 1021.6 0.0
25/05:00pm 17.6 11.0 12.5 72 2.8 SSW 39 48 21 26 1021.3 1021.3 0.0
25/04:30pm 17.8 11.8 12.0 69 3.2 SSW 35 46 19 25 1021.0 1021.0 0.0
25/04:00pm 17.9 12.7 12.8 72 2.8 SSW 32 37 17 20 1020.5 1020.5 0.0
25/03:30pm 17.8 13.0 12.9 73 2.7 SSW 30 35 16 19 1020.2 1020.2 0.0
25/03:00pm 17.8 13.2 13.5 76 2.4 SSW 30 35 16 19 1020.0 1020.0 0.0
25/02:30pm 17.6 13.2 12.9 74 2.6 SSW 28 35 15 19 1019.8 1019.8 0.0
25/02:00pm 17.8 14.0 13.5 76 2.4 SSW 26 30 14 16 1019.8 1019.8 0.0
25/01:30pm 18.2 14.1 13.7 75 2.6 SSW 28 32 15 17 1020.0 1020.0 0.0
25/01:00pm 17.9 14.0 13.4 75 2.5 SW 26 32 14 17 1020.0 1020.0 0.0
25/12:30pm 18.0 14.5 13.3 74 2.7 SSW 24 28 13 15 1020.0 1020.0 0.0
25/12:00pm 18.3 16.1 13.2 72 2.9 SSW 17 22 9 12 1020.1 1020.1 0.0
25/11:30am 18.0 15.6 12.7 71 3.0 SSW 17 20 9 11 1020.2 1020.2 0.0
25/11:00am 17.5 15.4 12.4 72 2.8 SSW 15 19 8 10 1020.3 1020.3 0.0
25/10:30am 17.4 15.7 12.3 72 2.8 S 13 15 7 8 1020.4 1020.4 0.0
25/10:00am 17.0 15.5 11.9 72 2.8 SSW 11 13 6 7 1020.6 1020.6 0.0
25/09:30am 17.0 17.2 11.9 72 2.8 ESE 2 11 1 6 1020.5 1020.5 0.0
25/09:00am 16.4 16.9 11.6 73 2.6 CALM 0 0 0 0 1020.2 1020.2 -
25/08:30am 15.9 16.3 11.3 74 2.5 CALM 0 0 0 0 1020.1 1020.1 -
25/08:00am 15.2 14.8 11.2 77 2.1 ESE 4 9 2 5 1020.1 1020.1 -
25/07:30am 14.6 13.2 10.8 78 2.0 ESE 9 13 5 7 1019.8 1019.8 -
25/07:00am 13.6 12.8 11.0 84 1.4 ESE 6 11 3 6 1019.4 1019.4 0.0
25/06:30am 12.0 9.9 9.6 85 1.2 ESE 11 13 6 7 1019.3 1019.3 0.0
25/06:00am 11.9 9.3 9.3 84 1.3 ESE 13 19 7 10 1019.2 1019.2 0.0
25/05:30am 12.7 11.1 10.1 84 1.3 SSE 9 13 5 7 1019.2 1019.2 0.0
25/05:00am 12.4 12.3 9.6 83 1.4 CALM 0 0 0 0 1019.2 1019.2 0.0
25/04:30am 12.4 11.2 9.6 83 1.4 SSE 6 9 3 5 1019.0 1019.0 0.0
25/04:00am 12.8 10.6 9.4 80 1.7 SSE 11 13 6 7 1018.8 1018.8 0.0
25/03:30am 13.9 12.0 10.5 80 1.8 SSE 11 15 6 8 1018.7 1018.7 0.0
25/03:00am 14.1 12.4 11.1 82 1.6 SSE 11 13 6 7 1018.7 1018.7 0.0
25/02:30am 14.2 12.4 11.0 81 1.7 SSE 11 15 6 8 1018.8 1018.8 0.0
25/02:00am 14.7 12.0 11.7 82 1.6 SSE 17 20 9 11 1018.9 1018.9 0.0
25/01:30am 14.6 11.6 11.9 84 1.5 SSE 19 20 10 11 1018.9 1018.9 0.0
25/01:00am 14.8 11.8 12.7 87 1.1 SSE 20 24 11 13 1019.0 1019.0 0.0
25/12:30am 16.2 13.1 13.3 83 1.6 S 22 26 12 14 1019.1 1019.1 0.0
25/12:00am 16.3 12.7 13.0 81 1.8 S 24 30 13 16 1019.4 1019.4 0.0
 
Date/Time
WST
Temp
°C
App
Temp
°C
Dew
Point
°C
Rel
Hum
%
Delta-T
°C
Wind Press
QNH
hPa
Press
MSL
hPa
Rain since
9am
mm
Dir  Spd
km/h
Gust
km/h
Spd
kts
Gust
kts
24/11:30pm 16.3 12.7 13.0 81 1.8 S 24 30 13 16 1019.7 1019.7 0.0
24/11:00pm 16.4 12.4 13.1 81 1.8 S 26 32 14 17 1020.2 1020.2 0.0
24/10:30pm 16.5 11.2 12.5 77 2.2 S 32 39 17 21 1020.5 1020.5 0.0
24/10:00pm 16.6 11.1 12.6 77 2.2 S 33 39 18 21 1020.6 1020.6 0.0
24/09:30pm 16.6 11.4 12.8 78 2.1 S 32 37 17 20 1020.9 1020.9 0.0
24/09:00pm 16.7 10.9 12.8 78 2.2 S 35 39 19 21 1021.2 1021.2 0.0
24/08:30pm 16.9 11.8 13.2 79 2.1 S 32 37 17 20 1021.5 1021.5 0.0
24/08:00pm 17.3 12.0 13.0 76 2.4 S 33 39 18 21 1021.3 1021.3 0.0
24/07:30pm 17.5 11.7 12.8 74 2.6 S 35 39 19 21 1021.3 1021.3 0.0
24/07:00pm 17.4 12.1 13.1 76 2.4 SSW 33 37 18 20 1021.0 1021.0 0.0
24/06:30pm 17.3 12.1 12.8 75 2.5 SSW 32 39 17 21 1020.7 1020.7 0.0
24/06:00pm 17.5 12.5 13.4 77 2.3 SSW 32 37 17 20 1020.6 1020.6 0.0
24/05:30pm 17.7 12.1 13.2 75 2.5 SSW 35 39 19 21 1020.3 1020.3 0.0
24/05:00pm 17.8 12.6 13.3 75 2.5 SSW 33 39 18 21 1020.3 1020.3 0.0
24/04:30pm 18.0 12.8 12.7 71 3.0 SSW 32 35 17 19 1020.2 1020.2 0.0
24/04:00pm 18.1 13.2 12.5 70 3.1 SSW 30 33 16 18 1020.2 1020.2 0.0
24/03:30pm 18.2 13.4 12.9 71 3.0 SSW 30 33 16 18 1020.2 1020.2 0.0
24/03:00pm 18.3 13.8 12.7 70 3.1 SSW 28 32 15 17 1020.6 1020.6 0.0
24/02:30pm 18.5 14.1 12.9 70 3.1 SSW 28 32 15 17 1020.8 1020.8 0.0
24/02:00pm 18.6 14.5 12.6 68 3.3 SSW 26 30 14 16 1021.1 1021.1 0.0
24/01:30pm 19.0 15.8 11.8 63 4.0 SSW 20 26 11 14 1021.4 1021.4 0.0
24/01:00pm 19.1 16.2 12.8 67 3.5 SSW 20 24 11 13 1021.8 1021.8 0.0
24/12:30pm 19.6 17.2 12.8 65 3.8 SSW 17 20 9 11 1022.3 1022.3 0.0
24/12:00pm 20.0 18.9 11.8 59 4.5 SE 9 15 5 8 1022.8 1022.8 0.0
24/11:30am 19.9 18.9 12.2 61 4.3 ESE 9 15 5 8 1023.3 1023.3 0.0
24/11:00am 19.9 17.9 11.4 58 4.7 E 13 17 7 9 1023.7 1023.7 0.0
24/10:30am 19.2 16.5 11.7 62 4.1 E 17 24 9 13 1024.0 1024.0 0.0
24/10:00am 18.6 16.3 11.9 65 3.7 ESE 15 20 8 11 1024.1 1024.1 0.0
24/09:30am 18.1 15.7 12.8 71 3.0 ESE 17 22 9 12 1024.4 1024.4 0.0

Latest Capital City Observations: Canberra | Sydney | Melbourne | Brisbane | Adelaide | Perth | Hobart | Darwin

Other formats

Comma delimited format used in spreadsheet applications
http://www.bom.gov.au/fwo/IDW60901/IDW60901.95607.axf

JavaScript Object Notation format (JSON) in row-major order
http://www.bom.gov.au/fwo/IDW60901/IDW60901.95607.json

Data quality

Most of these data are generated automatically and are frequently updated. Quality checks on data are not normally performed. It is possible for incorrect values to appear. Refer to information at About Latest Weather Observations and please check the disclaimer before using these data.